Time;durP1;ratioP1;P1;durP2;ratioP2;P2;SDS_P1;SDS_P2;PMS_P1;PMS_P2;Temp;Humidity;BMP_temperature;BMP_pressure;BME280_temperature;BME280_humidity;BME280_pressure;Samples;Min_cycle;Max_cycle;Signal;HPM_P1;HPM_P2
2022/07/23 00:00:18;;;;;;;5.70;5.15;;;22.40;99.90;;;;;;4994561;28;20088;-84
2022/07/23 00:02:44;;;;;;;11.68;4.85;;;22.40;99.90;;;;;;5011798;28;20033;-84
2022/07/23 00:05:10;;;;;;;13.95;5.32;;;22.30;99.90;;;;;;4994922;28;20022;-83
2022/07/23 00:07:36;;;;;;;6.15;4.97;;;22.20;99.90;;;;;;4994575;28;20108;-84
2022/07/23 00:10:03;;;;;;;5.30;4.40;;;22.10;99.90;;;;;;4994484;28;20022;-83
2022/07/23 00:12:29;;;;;;;5.28;4.30;;;22.00;99.90;;;;;;5012119;28;20026;-82
2022/07/23 00:14:55;;;;;;;7.60;5.43;;;21.90;99.90;;;;;;4994379;28;20030;-83
2022/07/23 00:17:20;;;;;;;9.88;4.55;;;21.90;99.90;;;;;;4994388;28;20434;-85
2022/07/23 00:19:46;;;;;;;8.05;5.75;;;21.90;99.90;;;;;;4994371;28;20394;-86
2022/07/23 00:22:12;;;;;;;7.13;5.28;;;21.90;99.90;;;;;;4994278;28;20084;-85
2022/07/23 00:24:38;;;;;;;8.18;4.70;;;21.80;99.90;;;;;;4994367;28;20037;-85
2022/07/23 00:27:03;;;;;;;5.13;4.63;;;21.90;99.90;;;;;;4994073;28;20022;-83
2022/07/23 00:29:29;;;;;;;6.28;5.30;;;21.70;99.90;;;;;;4994326;28;20065;-84
2022/07/23 00:31:55;;;;;;;11.40;5.03;;;21.80;99.90;;;;;;4994028;28;20035;-83
2022/07/23 00:34:21;;;;;;;6.35;4.07;;;21.80;99.90;;;;;;4994040;28;20092;-83
2022/07/23 00:36:47;;;;;;;5.50;4.68;;;21.80;99.90;;;;;;4993990;28;20116;-83
2022/07/23 00:39:12;;;;;;;5.10;4.60;;;21.90;99.90;;;;;;5011734;28;20053;-85
2022/07/23 00:41:38;;;;;;;6.85;4.43;;;21.90;99.90;;;;;;4993663;28;20065;-82
2022/07/23 00:44:24;;;;;;;6.18;3.80;;;21.90;99.90;;;;;;5011577;28;20097;-82
2022/07/23 00:47:00;;;;;;;4.32;3.75;;;21.90;99.90;;;;;;4993533;28;20034;-82
2022/07/23 00:49:29;;;;;;;7.40;4.20;;;21.90;99.90;;;;;;4994051;28;20103;-84
2022/07/23 00:51:56;;;;;;;5.50;4.20;;;21.80;99.90;;;;;;4993804;28;20037;-85
2022/07/23 00:54:24;;;;;;;5.15;3.80;;;21.70;99.90;;;;;;5011039;28;20389;-84
2022/07/23 00:56:50;;;;;;;3.75;2.70;;;21.70;99.90;;;;;;4993228;28;20547;-81
2022/07/23 00:59:16;;;;;;;3.55;3.25;;;21.80;99.90;;;;;;4993578;28;20033;-82
2022/07/23 01:01:44;;;;;;;3.05;2.75;;;21.80;99.90;;;;;;4977687;28;20030;-84
2022/07/23 01:04:10;;;;;;;3.67;2.85;;;21.70;99.90;;;;;;4993856;28;20109;-82
2022/07/23 01:06:38;;;;;;;3.67;2.72;;;21.60;99.90;;;;;;4993796;28;20017;-84
2022/07/23 01:09:07;;;;;;;5.03;3.05;;;21.50;99.90;;;;;;4993610;28;20030;-82
2022/07/23 01:11:37;;;;;;;3.88;3.30;;;21.50;99.90;;;;;;4992978;28;20501;-83
2022/07/23 01:14:15;;;;;;;4.60;3.03;;;21.40;99.90;;;;;;4993571;28;20034;-85
2022/07/23 01:16:42;;;;;;;3.15;2.85;;;21.40;99.90;;;;;;4993560;28;20112;-83
2022/07/23 01:19:08;;;;;;;11.40;3.42;;;21.30;99.90;;;;;;4993590;28;20029;-84
2022/07/23 01:21:43;;;;;;;7.85;3.20;;;21.20;99.90;;;;;;4993412;28;20026;-84
2022/07/23 01:24:10;;;;;;;4.65;3.72;;;21.10;99.90;;;;;;5010831;28;20025;-81
2022/07/23 01:26:37;;;;;;;7.30;3.58;;;21.00;99.90;;;;;;5010810;28;20457;-84
2022/07/23 01:29:04;;;;;;;4.35;3.20;;;21.00;99.90;;;;;;5010937;28;20030;-82
2022/07/23 01:31:30;;;;;;;4.43;3.15;;;20.90;99.90;;;;;;4993514;28;20492;-82
2022/07/23 01:33:56;;;;;;;3.20;2.90;;;20.90;99.90;;;;;;5010572;28;20046;-84
2022/07/23 01:36:22;;;;;;;4.43;3.42;;;21.00;99.90;;;;;;4993152;28;20459;-84
2022/07/23 01:38:48;;;;;;;6.78;4.20;;;20.90;99.90;;;;;;5010874;28;20040;-84
2022/07/23 01:41:14;;;;;;;4.03;3.60;;;20.90;99.90;;;;;;4993011;28;20033;-83
2022/07/23 01:43:40;;;;;;;6.70;3.80;;;20.80;99.90;;;;;;4993440;28;20022;-85
2022/07/23 01:46:06;;;;;;;5.38;3.70;;;20.80;99.90;;;;;;4993212;28;20025;-83
2022/07/23 01:48:32;;;;;;;5.13;3.50;;;20.80;99.90;;;;;;4993246;28;20021;-82
2022/07/23 01:50:58;;;;;;;3.80;3.40;;;20.80;99.90;;;;;;4992914;28;20022;-85
2022/07/23 01:53:23;;;;;;;3.72;3.42;;;20.70;99.90;;;;;;5011529;28;20061;-84
2022/07/23 01:55:49;;;;;;;3.92;3.53;;;20.70;99.90;;;;;;5014214;28;20036;-85
2022/07/23 01:58:15;;;;;;;4.38;3.78;;;20.60;99.90;;;;;;4996347;28;20366;-85
2022/07/23 02:00:41;;;;;;;6.45;3.60;;;20.60;99.90;;;;;;5014195;28;20469;-85
2022/07/23 02:03:07;;;;;;;8.00;3.60;;;20.60;99.90;;;;;;4997146;28;20033;-82
2022/07/23 02:05:33;;;;;;;10.30;3.55;;;20.50;99.90;;;;;;4996750;28;20105;-84
2022/07/23 02:07:59;;;;;;;9.07;3.85;;;20.40;99.90;;;;;;4997443;28;20100;-84
2022/07/23 02:10:26;;;;;;;6.20;3.53;;;20.50;99.90;;;;;;5015045;28;20029;-84
2022/07/23 02:12:52;;;;;;;5.20;3.10;;;20.50;99.90;;;;;;4998155;28;20049;-85
2022/07/23 02:15:19;;;;;;;5.43;3.60;;;20.60;99.90;;;;;;4998529;28;20080;-84
2022/07/23 02:17:44;;;;;;;5.63;3.90;;;20.60;99.90;;;;;;4998094;28;20104;-84
2022/07/23 02:20:11;;;;;;;4.10;3.70;;;20.60;99.90;;;;;;5016080;28;20022;-84
2022/07/23 02:22:37;;;;;;;4.50;3.58;;;20.50;99.90;;;;;;4998150;28;20053;-82
2022/07/23 02:25:07;;;;;;;4.05;3.50;;;20.50;99.90;;;;;;4998227;28;20088;-85
2022/07/23 02:27:33;;;;;;;3.53;3.22;;;20.50;99.90;;;;;;4999670;28;20031;-84
2022/07/23 02:30:00;;;;;;;4.18;3.47;;;20.40;99.90;;;;;;4999626;28;20033;-83
2022/07/23 02:32:25;;;;;;;8.32;3.78;;;20.40;99.90;;;;;;4998992;28;20030;-83
2022/07/23 02:34:51;;;;;;;2.88;2.63;;;20.40;99.90;;;;;;4995810;28;20040;-84
2022/07/23 02:37:17;;;;;;;5.05;3.63;;;20.40;99.90;;;;;;4996432;28;20473;-82
2022/07/23 02:39:43;;;;;;;5.07;3.47;;;20.40;99.90;;;;;;5013884;28;20029;-84
2022/07/23 02:42:09;;;;;;;4.13;3.58;;;20.30;99.90;;;;;;4996424;28;20480;-84
2022/07/23 02:44:35;;;;;;;4.55;3.85;;;20.20;99.90;;;;;;5013898;28;20033;-83
2022/07/23 02:47:01;;;;;;;7.45;3.67;;;20.40;99.90;;;;;;4996356;28;20021;-85
2022/07/23 02:49:27;;;;;;;3.80;3.42;;;20.40;99.90;;;;;;4996013;28;20470;-83
2022/07/23 02:51:53;;;;;;;9.93;3.60;;;20.40;99.90;;;;;;5013417;28;20060;-83
2022/07/23 02:54:19;;;;;;;4.95;4.20;;;20.20;99.90;;;;;;4995615;28;20366;-84
2022/07/23 02:56:45;;;;;;;6.90;4.47;;;20.20;99.90;;;;;;4996033;28;20033;-82
2022/07/23 02:59:11;;;;;;;7.20;3.78;;;20.30;99.90;;;;;;5013626;28;20026;-84
2022/07/23 03:01:37;;;;;;;8.82;4.22;;;20.20;99.90;;;;;;5013599;28;20025;-85
2022/07/23 03:04:03;;;;;;;6.70;4.13;;;20.20;99.90;;;;;;4995653;28;20030;-83
2022/07/23 03:06:29;;;;;;;8.00;3.28;;;20.20;99.90;;;;;;5013088;28;20022;-82
2022/07/23 03:08:54;;;;;;;6.38;3.72;;;20.20;99.90;;;;;;5013102;28;20026;-83
2022/07/23 03:11:20;;;;;;;4.88;3.70;;;20.20;99.90;;;;;;4995868;28;20504;-83
2022/07/23 03:13:46;;;;;;;7.05;3.97;;;20.30;99.90;;;;;;4995953;28;20036;-85
2022/07/23 03:16:11;;;;;;;6.03;3.80;;;20.30;99.90;;;;;;5013258;28;20109;-82
2022/07/23 03:18:38;;;;;;;9.32;4.40;;;20.20;99.90;;;;;;4995348;28;20021;-83
2022/07/23 03:21:04;;;;;;;6.05;3.72;;;20.20;99.90;;;;;;5013356;28;20033;-84
2022/07/23 03:23:30;;;;;;;4.80;3.15;;;20.30;99.90;;;;;;5013193;28;20029;-82
2022/07/23 03:25:55;;;;;;;6.85;3.53;;;20.30;99.90;;;;;;5012969;28;20101;-82
2022/07/23 03:28:21;;;;;;;12.07;3.38;;;20.30;99.90;;;;;;5013253;28;20025;-83
2022/07/23 03:30:48;;;;;;;5.10;3.20;;;20.30;99.90;;;;;;5016138;28;20549;-82
2022/07/23 03:33:14;;;;;;;3.28;2.97;;;20.30;99.90;;;;;;5013402;28;20097;-82
2022/07/23 03:35:40;;;;;;;6.45;3.53;;;20.30;99.90;;;;;;5012943;28;20038;-84
2022/07/23 03:38:06;;;;;;;5.88;3.47;;;20.30;99.90;;;;;;5013467;28;20339;-82
2022/07/23 03:40:31;;;;;;;5.90;3.10;;;20.40;99.90;;;;;;5016719;28;20029;-84
2022/07/23 03:42:58;;;;;;;3.70;3.35;;;20.70;99.90;;;;;;5018425;28;20094;-83
2022/07/23 03:45:24;;;;;;;4.93;3.97;;;21.00;99.90;;;;;;5036651;28;20022;-84
2022/07/23 03:47:49;;;;;;;9.50;4.03;;;21.10;99.90;;;;;;5036369;28;20041;-83
2022/07/23 03:50:15;;;;;;;5.05;3.95;;;21.40;99.90;;;;;;5036312;28;20205;-83
2022/07/23 03:52:41;;;;;;;4.40;4.00;;;21.50;99.90;;;;;;5036355;28;20026;-84
2022/07/23 03:55:07;;;;;;;9.20;5.10;;;21.70;99.90;;;;;;5036130;28;20053;-84
2022/07/23 03:57:33;;;;;;;9.52;4.93;;;21.80;99.90;;;;;;5036186;28;20018;-83
2022/07/23 03:59:58;;;;;;;9.20;4.85;;;21.80;99.90;;;;;;5035924;28;20021;-84
2022/07/23 04:02:24;;;;;;;15.82;5.28;;;21.90;99.90;;;;;;5012860;28;20029;-83
2022/07/23 04:04:50;;;;;;;7.30;5.32;;;22.00;99.90;;;;;;5012836;28;20244;-83
2022/07/23 04:07:17;;;;;;;7.90;5.78;;;22.00;99.90;;;;;;4994845;28;20030;-81
2022/07/23 04:09:43;;;;;;;8.05;5.47;;;22.10;99.90;;;;;;4994779;28;20030;-81
2022/07/23 04:12:09;;;;;;;8.10;5.15;;;22.10;99.90;;;;;;5012383;28;20080;-84
2022/07/23 04:14:35;;;;;;;5.28;4.45;;;22.00;99.90;;;;;;5012907;28;20058;-83
2022/07/23 04:17:01;;;;;;;9.10;4.88;;;22.10;99.90;;;;;;5011403;28;20041;-84
2022/07/23 04:19:27;;;;;;;5.32;4.50;;;22.10;99.90;;;;;;5012094;28;20388;-82
2022/07/23 04:21:53;;;;;;;11.27;5.13;;;22.10;99.90;;;;;;5012042;28;20030;-83
2022/07/23 04:24:29;;;;;;;8.82;5.05;;;22.10;99.90;;;;;;4996772;28;20099;-82
2022/07/23 04:26:55;;;;;;;5.82;5.20;;;22.10;99.90;;;;;;4994390;28;20290;-84
2022/07/23 04:29:20;;;;;;;14.15;5.30;;;22.10;99.90;;;;;;5011962;28;20469;-83
2022/07/23 04:31:46;;;;;;;9.38;4.80;;;22.10;99.90;;;;;;5011817;28;20033;-82
2022/07/23 04:34:11;;;;;;;13.02;4.95;;;22.10;99.90;;;;;;5011385;28;20068;-83
2022/07/23 04:36:37;;;;;;;5.40;4.85;;;22.00;99.90;;;;;;5012022;28;20025;-82
2022/07/23 04:39:03;;;;;;;9.60;5.07;;;22.10;99.90;;;;;;5011745;28;20065;-84
2022/07/23 04:41:30;;;;;;;12.02;5.32;;;22.20;99.90;;;;;;5011858;28;20060;-83
2022/07/23 04:43:55;;;;;;;6.60;5.13;;;22.20;99.90;;;;;;5011551;28;20072;-82
2022/07/23 04:46:21;;;;;;;6.55;4.95;;;22.20;99.90;;;;;;5011829;28;20058;-85
2022/07/23 04:48:46;;;;;;;7.25;5.07;;;22.20;99.90;;;;;;5011283;28;20392;-83
2022/07/23 04:51:12;;;;;;;6.85;5.03;;;22.20;99.90;;;;;;5011829;28;20030;-83
2022/07/23 04:53:38;;;;;;;10.88;5.80;;;22.20;99.90;;;;;;5011562;28;20033;-83
2022/07/23 04:56:04;;;;;;;13.98;5.70;;;22.20;99.90;;;;;;5011385;28;20041;-82
2022/07/23 04:58:31;;;;;;;5.55;5.05;;;22.30;99.90;;;;;;5011413;28;20036;-83
2022/07/23 05:00:57;;;;;;;7.18;5.30;;;22.40;99.90;;;;;;4993551;28;20029;-82
2022/07/23 05:03:23;;;;;;;10.13;5.72;;;22.40;99.90;;;;;;5012826;28;20025;-82
2022/07/23 05:05:49;;;;;;;10.65;6.00;;;22.50;99.90;;;;;;5011307;28;20385;-82
2022/07/23 05:08:15;;;;;;;9.27;5.30;;;22.60;99.90;;;;;;5011434;28;20026;-82
2022/07/23 05:10:41;;;;;;;6.80;5.85;;;22.60;99.90;;;;;;5011261;28;20033;-82
2022/07/23 05:13:07;;;;;;;8.43;6.15;;;22.60;99.90;;;;;;4993676;28;20026;-82
2022/07/23 05:15:32;;;;;;;6.80;4.95;;;22.70;99.90;;;;;;5011071;28;20033;-82
2022/07/23 05:17:58;;;;;;;6.20;5.13;;;22.80;99.90;;;;;;5010914;28;20045;-81
2022/07/23 05:20:27;;;;;;;12.73;5.43;;;22.80;99.90;;;;;;5010891;28;20046;-82
2022/07/23 05:22:52;;;;;;;8.07;5.95;;;22.80;99.90;;;;;;5011151;28;20026;-81
2022/07/23 05:25:18;;;;;;;10.48;6.75;;;22.80;99.90;;;;;;5011949;28;20096;-83
2022/07/23 05:27:44;;;;;;;8.68;5.38;;;22.80;99.90;;;;;;5012078;28;20041;-84
2022/07/23 05:30:10;;;;;;;9.45;5.43;;;22.80;99.90;;;;;;5012211;28;20056;-81
2022/07/23 05:32:38;;;;;;;13.18;5.13;;;22.80;99.90;;;;;;5012455;28;20071;-83
2022/07/23 05:35:06;;;;;;;12.48;5.03;;;22.90;99.90;;;;;;5012473;28;20342;-81
2022/07/23 05:37:32;;;;;;;7.05;5.18;;;22.90;99.90;;;;;;4995149;28;20022;-83
2022/07/23 05:40:07;;;;;;;10.70;5.18;;;22.90;99.90;;;;;;5012528;28;20041;-84
2022/07/23 05:42:42;;;;;;;4.85;4.35;;;22.90;99.90;;;;;;5012500;28;20466;-81
2022/07/23 05:45:08;;;;;;;10.32;5.63;;;23.00;99.90;;;;;;5012640;28;20109;-82
2022/07/23 05:48:00;;;;;;;8.02;5.47;;;23.10;99.90;;;;;;5012271;28;20022;-83
2022/07/23 05:50:25;;;;;;;8.68;5.13;;;23.30;99.90;;;;;;5007202;28;20038;-84
2022/07/23 05:52:51;;;;;;;6.97;5.18;;;23.30;99.90;;;;;;5012566;28;20105;-83
2022/07/23 05:55:17;;;;;;;10.95;5.75;;;23.40;99.90;;;;;;5013179;28;20085;-84
2022/07/23 05:57:42;;;;;;;7.32;5.75;;;23.50;99.90;;;;;;5013146;28;20030;-82
2022/07/23 06:00:10;;;;;;;9.65;5.45;;;23.70;99.90;;;;;;5013300;28;20108;-84
2022/07/23 06:02:37;;;;;;;10.00;4.88;;;23.70;99.90;;;;;;5013247;28;20037;-83
2022/07/23 06:05:03;;;;;;;10.43;4.63;;;23.70;99.60;;;;;;5013061;28;20018;-86
2022/07/23 06:07:29;;;;;;;7.78;4.97;;;23.90;99.90;;;;;;4995450;28;20351;-82
2022/07/23 06:09:55;;;;;;;9.13;5.22;;;24.10;99.90;;;;;;5013116;28;20029;-83
2022/07/23 06:12:20;;;;;;;14.75;5.25;;;24.10;99.90;;;;;;5013027;28;20072;-84
2022/07/23 06:14:48;;;;;;;8.20;5.32;;;24.10;99.90;;;;;;4995201;28;20056;-82
2022/07/23 06:17:14;;;;;;;8.98;4.80;;;24.20;99.20;;;;;;5013052;28;20461;-83
2022/07/23 06:19:39;;;;;;;13.43;5.15;;;24.60;99.70;;;;;;5012558;28;20045;-83
2022/07/23 06:22:05;;;;;;;4.97;4.45;;;24.90;98.40;;;;;;5012537;28;20519;-85
2022/07/23 06:24:30;;;;;;;9.15;4.88;;;25.10;98.40;;;;;;5012754;28;20423;-85
2022/07/23 06:26:56;;;;;;;6.43;5.00;;;24.90;96.80;;;;;;5012767;28;20029;-83
2022/07/23 06:29:22;;;;;;;8.18;4.63;;;25.10;96.50;;;;;;5012862;28;20053;-85
2022/07/23 06:31:47;;;;;;;5.57;4.13;;;25.40;95.50;;;;;;5012623;28;20703;-83
2022/07/23 06:34:13;;;;;;;7.30;4.05;;;25.60;94.70;;;;;;5012576;28;20120;-85
2022/07/23 06:36:39;;;;;;;6.07;4.47;;;25.70;95.30;;;;;;5012713;28;20021;-85
2022/07/23 06:39:04;;;;;;;5.38;3.88;;;25.60;95.60;;;;;;4995624;28;20065;-82
2022/07/23 06:41:30;;;;;;;13.80;4.63;;;25.80;96.50;;;;;;5016692;28;20022;-84
2022/07/23 06:43:56;;;;;;;4.78;3.40;;;25.80;95.40;;;;;;5016376;28;20110;-83
2022/07/23 06:46:23;;;;;;;8.40;3.70;;;26.00;93.30;;;;;;5016490;28;20160;-82
2022/07/23 06:48:48;;;;;;;5.32;3.53;;;25.90;95.20;;;;;;4998597;28;20593;-84
2022/07/23 06:51:17;;;;;;;5.75;3.53;;;26.00;94.00;;;;;;5016372;28;20049;-84
2022/07/23 06:53:42;;;;;;;5.85;3.40;;;26.10;93.90;;;;;;5016124;28;20030;-82
2022/07/23 06:56:08;;;;;;;4.53;3.25;;;26.20;93.20;;;;;;4998640;28;20485;-84
2022/07/23 06:58:34;;;;;;;3.55;3.13;;;26.10;91.90;;;;;;5015774;28;20172;-81
2022/07/23 07:00:59;;;;;;;4.20;3.10;;;26.10;93.10;;;;;;5016169;28;20026;-83
2022/07/23 07:03:25;;;;;;;4.47;3.33;;;26.10;93.30;;;;;;5016029;28;20033;-83
2022/07/23 07:05:51;;;;;;;3.45;2.95;;;25.80;93.00;;;;;;5015687;28;20153;-85
2022/07/23 07:08:17;;;;;;;4.43;3.35;;;25.90;92.70;;;;;;5016020;28;20374;-82
2022/07/23 07:10:43;;;;;;;9.65;3.83;;;25.90;92.60;;;;;;5015745;28;20033;-85
2022/07/23 07:13:09;;;;;;;4.53;3.75;;;25.90;93.50;;;;;;5015844;28;20036;-84
2022/07/23 07:15:37;;;;;;;6.05;3.80;;;25.70;93.40;;;;;;4998045;28;20078;-82
2022/07/23 07:18:03;;;;;;;6.50;3.58;;;25.50;95.40;;;;;;5015129;28;20089;-85
2022/07/23 07:20:29;;;;;;;5.45;3.92;;;25.50;95.70;;;;;;5015190;28;20069;-86
2022/07/23 07:22:54;;;;;;;12.45;3.67;;;25.30;95.70;;;;;;5015254;28;20030;-84
2022/07/23 07:25:20;;;;;;;3.85;3.53;;;25.10;97.80;;;;;;5015427;28;20068;-84
2022/07/23 07:27:46;;;;;;;4.80;3.85;;;25.00;97.80;;;;;;5015322;28;20052;-84
2022/07/23 07:30:12;;;;;;;5.03;3.47;;;25.10;96.70;;;;;;5015463;28;20369;-83
2022/07/23 07:32:38;;;;;;;7.75;4.13;;;25.00;97.70;;;;;;5015293;28;20029;-86
2022/07/23 07:35:05;;;;;;;13.57;3.80;;;24.80;97.30;;;;;;5015334;28;20721;-84
2022/07/23 07:37:30;;;;;;;11.95;3.92;;;24.90;98.20;;;;;;4997938;28;20532;-83
2022/07/23 07:39:56;;;;;;;9.05;4.10;;;24.90;99.90;;;;;;5015233;28;20042;-83
2022/07/23 07:42:21;;;;;;;6.88;3.50;;;24.90;99.90;;;;;;5015589;28;20473;-82
2022/07/23 07:44:47;;;;;;;8.57;4.10;;;25.00;99.90;;;;;;5015338;28;20018;-82
2022/07/23 07:47:15;;;;;;;9.00;4.90;;;25.00;99.90;;;;;;5015315;28;20030;-83
2022/07/23 07:49:41;;;;;;;7.55;5.07;;;25.20;98.80;;;;;;5015318;28;20037;-81
2022/07/23 07:52:07;;;;;;;5.20;3.78;;;25.30;99.20;;;;;;5014240;28;20030;-83
2022/07/23 07:54:33;;;;;;;5.15;3.45;;;25.60;99.00;;;;;;5015343;28;20026;-82
2022/07/23 07:56:58;;;;;;;5.68;4.00;;;25.70;97.70;;;;;;5015286;28;20030;-83
2022/07/23 07:59:24;;;;;;;15.13;7.43;;;25.60;99.90;;;;;;5014820;28;20092;-84
2022/07/23 08:01:49;;;;;;;91.72;52.03;;;25.40;99.10;;;;;;4997245;28;20018;-82
2022/07/23 08:04:15;;;;;;;14.65;8.95;;;25.40;97.70;;;;;;5015141;28;20022;-85
2022/07/23 08:06:41;;;;;;;21.58;10.98;;;25.40;99.40;;;;;;5015021;28;20026;-84
2022/07/23 08:09:06;;;;;;;12.73;7.00;;;25.40;99.00;;;;;;5015077;28;20352;-85
2022/07/23 08:11:32;;;;;;;14.05;9.32;;;25.40;98.30;;;;;;5014970;28;20523;-85
2022/07/23 08:13:58;;;;;;;22.15;12.70;;;25.40;99.70;;;;;;5014687;28;20413;-84
2022/07/23 08:16:27;;;;;;;6.85;5.75;;;25.40;97.40;;;;;;4996777;28;20033;-82
2022/07/23 08:18:53;;;;;;;6.88;4.82;;;25.30;99.10;;;;;;5014520;28;20076;-83
2022/07/23 08:21:19;;;;;;;9.95;3.75;;;25.30;97.90;;;;;;4997183;28;20050;-85
2022/07/23 08:23:45;;;;;;;6.32;4.38;;;25.50;97.10;;;;;;5014766;28;20022;-83
2022/07/23 08:26:11;;;;;;;6.88;4.30;;;25.70;96.40;;;;;;5014708;28;20457;-82
2022/07/23 08:28:37;;;;;;;6.68;4.60;;;25.80;97.60;;;;;;5014333;28;20080;-82
2022/07/23 08:31:05;;;;;;;5.13;4.63;;;25.70;95.90;;;;;;5024156;28;20049;-85
2022/07/23 08:33:31;;;;;;;4.38;3.97;;;26.00;96.40;;;;;;5027645;28;20093;-85
2022/07/23 08:35:57;;;;;;;7.43;4.25;;;26.00;97.90;;;;;;5031344;28;20054;-82
2022/07/23 08:38:23;;;;;;;7.93;4.07;;;26.60;95.90;;;;;;5013554;28;20088;-84
2022/07/23 08:40:51;;;;;;;4.38;3.75;;;27.00;97.00;;;;;;5030634;28;20025;-85
2022/07/23 08:43:20;;;;;;;8.80;5.25;;;27.30;95.70;;;;;;5016174;28;20064;-84
2022/07/23 08:45:48;;;;;;;4.97;4.10;;;27.40;94.40;;;;;;5016691;28;20045;-84
2022/07/23 08:48:15;;;;;;;3.42;3.13;;;27.30;95.00;;;;;;5014638;28;20385;-82
2022/07/23 08:50:46;;;;;;;5.90;3.97;;;27.50;93.40;;;;;;5014412;28;20030;-85
2022/07/23 08:53:12;;;;;;;9.70;3.80;;;27.70;93.80;;;;;;5014911;28;20033;-83
2022/07/23 08:55:38;;;;;;;9.35;4.72;;;27.90;95.10;;;;;;5013854;28;20461;-82
2022/07/23 08:58:04;;;;;;;8.05;5.65;;;27.60;93.90;;;;;;4996264;28;20123;-86
2022/07/23 09:00:30;;;;;;;4.55;3.90;;;27.40;95.30;;;;;;5014096;28;20096;-82
2022/07/23 09:02:55;;;;;;;7.35;3.65;;;27.70;94.60;;;;;;5013412;28;20680;-83
2022/07/23 09:05:21;;;;;;;6.30;3.70;;;27.60;93.60;;;;;;5013593;28;20022;-83
2022/07/23 09:08:07;;;;;;;15.38;3.90;;;27.70;93.30;;;;;;5013905;28;20029;-83
2022/07/23 09:10:55;;;;;;;6.32;3.53;;;27.10;93.00;;;;;;5013293;28;20032;-81
2022/07/23 09:13:30;;;;;;;5.68;3.85;;;27.50;94.80;;;;;;5013473;28;20105;-82
2022/07/23 09:16:02;;;;;;;5.57;3.72;;;28.00;96.30;;;;;;5013012;28;20036;-85
2022/07/23 09:18:44;;;;;;;5.30;4.00;;;27.80;92.60;;;;;;5012973;28;20030;-82
2022/07/23 09:21:28;;;;;;;5.13;4.03;;;28.10;92.70;;;;;;5013197;28;20021;-85
2022/07/23 09:24:12;;;;;;;5.03;4.53;;;28.10;94.80;;;;;;5013245;28;20026;-82
2022/07/23 09:26:44;;;;;;;8.48;4.72;;;27.90;92.00;;;;;;5013147;28;20180;-84
2022/07/23 09:29:20;;;;;;;4.85;4.10;;;28.00;93.60;;;;;;4995851;28;20025;-83
2022/07/23 09:31:48;;;;;;;5.13;3.75;;;28.60;92.20;;;;;;5013520;28;20022;-82
2022/07/23 09:34:25;;;;;;;4.43;4.03;;;28.60;91.90;;;;;;5013157;28;20057;-85
2022/07/23 09:37:08;;;;;;;11.27;4.28;;;28.10;90.50;;;;;;5013574;28;20033;-85
2022/07/23 09:39:34;;;;;;;6.38;4.47;;;28.00;91.60;;;;;;5013169;28;20033;-83
2022/07/23 09:42:19;;;;;;;6.25;4.75;;;27.80;90.60;;;;;;5012981;28;20041;-82
2022/07/23 09:44:48;;;;;;;5.47;4.90;;;28.50;90.80;;;;;;5013373;28;20739;-83
2022/07/23 09:47:15;;;;;;;9.52;5.00;;;28.70;89.90;;;;;;4993007;28;20072;-83
2022/07/23 09:49:56;;;;;;;5.10;4.60;;;28.90;90.30;;;;;;4994805;28;20052;-84
2022/07/23 09:52:30;;;;;;;16.02;4.35;;;28.60;87.00;;;;;;4990847;28;20045;-85
2022/07/23 09:55:01;;;;;;;6.57;4.32;;;28.60;88.70;;;;;;4990720;28;20034;-85
2022/07/23 09:57:27;;;;;;;4.80;4.28;;;28.90;91.10;;;;;;4971980;28;20088;-83
2022/07/23 10:00:00;;;;;;;5.15;4.65;;;29.40;87.40;;;;;;4992561;28;20042;-83
2022/07/23 10:02:28;;;;;;;5.68;4.80;;;29.60;84.80;;;;;;4992231;28;20026;-85
2022/07/23 10:04:55;;;;;;;6.00;3.78;;;30.30;85.70;;;;;;4987441;28;20085;-85
2022/07/23 10:07:23;;;;;;;6.13;3.60;;;30.00;82.80;;;;;;4980150;28;22118;-85
2022/07/23 10:09:52;;;;;;;5.60;4.25;;;29.90;82.20;;;;;;4969123;28;20170;-85
2022/07/23 10:14:56;;;;;;;9.25;4.35;;;29.30;83.00;;;;;;4991354;28;20034;-84
2022/07/23 10:17:21;;;;;;;4.78;3.60;;;29.30;84.30;;;;;;4993034;28;20041;-82
2022/07/23 10:19:47;;;;;;;9.60;3.80;;;29.50;85.30;;;;;;4989652;28;20381;-83
2022/07/23 10:22:23;;;;;;;6.15;3.80;;;29.80;84.50;;;;;;4994389;28;20022;-84
2022/07/23 10:25:10;;;;;;;5.28;4.00;;;30.20;83.10;;;;;;4972772;28;20026;-84
2022/07/23 10:27:45;;;;;;;5.20;4.10;;;30.00;80.90;;;;;;4993076;28;20037;-85
2022/07/23 10:30:18;;;;;;;7.05;4.00;;;30.30;80.40;;;;;;4992060;28;20576;-83
2022/07/23 10:32:53;;;;;;;4.47;3.95;;;30.30;79.70;;;;;;4995939;28;20436;-82
2022/07/23 10:35:47;;;;;;;6.30;4.80;;;30.40;78.50;;;;;;4993918;28;20042;-83
2022/07/23 10:38:40;;;;;;;4.95;3.58;;;30.30;79.20;;;;;;4995546;28;20026;-83
2022/07/23 10:41:06;;;;;;;4.57;4.18;;;29.70;80.60;;;;;;4985397;28;20044;-84
2022/07/23 10:43:32;;;;;;;6.57;3.75;;;29.20;79.70;;;;;;4999443;28;20545;-84
2022/07/23 10:46:35;;;;;;;10.55;4.20;;;29.60;81.70;;;;;;4995087;28;20030;-85
2022/07/23 10:49:24;;;;;;;7.93;4.30;;;29.70;79.70;;;;;;4978734;23;20184;-58
2022/07/23 10:52:15;;;;;;;4.40;4.00;;;29.90;81.00;;;;;;4953727;28;20020;-60
2022/07/23 10:55:16;;;;;;;5.25;4.13;;;30.20;80.40;;;;;;4961273;28;20414;-57
2022/07/23 10:57:50;;;;;;;6.70;4.05;;;29.80;79.60;;;;;;4964407;28;20035;-60
2022/07/23 11:00:21;;;;;;;8.85;4.55;;;29.90;83.40;;;;;;4951396;28;20043;-60
2022/07/23 11:02:48;;;;;;;5.13;4.18;;;30.20;80.50;;;;;;4947459;28;20122;-59
2022/07/23 11:05:19;;;;;;;4.65;4.15;;;30.20;82.00;;;;;;4945901;28;20043;-56
2022/07/23 11:08:03;;;;;;;4.65;4.25;;;30.00;77.70;;;;;;4945490;28;20869;-59
2022/07/23 11:11:01;;;;;;;5.07;3.90;;;30.10;80.80;;;;;;4944414;28;20141;-59
2022/07/23 11:13:38;;;;;;;6.22;4.97;;;30.00;84.60;;;;;;4943929;28;20443;-56
2022/07/23 11:16:04;;;;;;;12.73;4.28;;;30.20;79.30;;;;;;4945300;28;20035;-60
2022/07/23 11:18:48;;;;;;;4.03;3.63;;;29.90;79.30;;;;;;4944581;28;20483;-56
2022/07/23 11:21:31;;;;;;;4.78;3.20;;;29.80;73.80;;;;;;4945447;28;20490;-57
2022/07/23 11:23:57;;;;;;;;;;;30.10;73.80;;;;;;4944654;28;20067;-59
2022/07/23 11:26:41;;;;;;;6.28;4.25;;;29.70;73.90;;;;;;4944062;28;19906;-58
2022/07/23 11:29:25;;;;;;;4.45;3.80;;;30.30;76.00;;;;;;4945819;28;20047;-56
2022/07/23 11:32:04;;;;;;;9.05;4.13;;;30.60;75.00;;;;;;4944988;28;20154;-57
2022/07/23 11:34:31;;;;;;;4.80;3.58;;;30.70;76.00;;;;;;4944249;28;20101;-57
2022/07/23 11:36:57;;;;;;;4.28;3.88;;;30.50;77.30;;;;;;4945082;28;20034;-57
2022/07/23 11:39:25;;;;;;;4.53;4.00;;;30.40;75.30;;;;;;4944081;28;20031;-57
2022/07/23 11:41:52;;;;;;;6.03;4.25;;;30.30;76.40;;;;;;4929562;28;20030;-56
2022/07/23 11:44:28;;;;;;;4.45;4.05;;;29.60;75.30;;;;;;4947531;28;20019;-58
2022/07/23 11:47:02;;;;;;;4.85;3.97;;;29.60;77.70;;;;;;4944931;28;20372;-59
2022/07/23 11:49:28;;;;;;;4.47;4.07;;;30.60;81.70;;;;;;4945673;28;20130;-58
2022/07/23 11:52:06;;;;;;;5.55;3.70;;;30.60;74.40;;;;;;4944221;28;20114;-57
2022/07/23 11:54:33;;;;;;;4.03;3.67;;;30.90;73.80;;;;;;4943801;28;20037;-57
2022/07/23 11:57:00;;;;;;;4.30;3.92;;;30.80;75.00;;;;;;4944705;28;20035;-57
2022/07/23 11:59:28;;;;;;;6.88;3.97;;;31.40;76.30;;;;;;4944889;28;20149;-55
2022/07/23 12:02:04;;;;;;;6.68;4.45;;;31.40;75.20;;;;;;4947191;28;20054;-58
2022/07/23 12:04:43;;;;;;;6.82;3.28;;;31.60;76.60;;;;;;4944570;28;20031;-57
2022/07/23 12:07:36;;;;;;;4.78;3.88;;;32.00;72.90;;;;;;4944887;28;20034;-56
2022/07/23 12:10:10;;;;;;;4.93;3.20;;;31.50;72.30;;;;;;4945949;28;20549;-58
2022/07/23 12:12:41;;;;;;;5.20;4.15;;;30.80;74.50;;;;;;4943974;28;20043;-59
2022/07/23 12:15:08;;;;;;;5.88;3.00;;;31.60;74.90;;;;;;4944380;28;20038;-58
2022/07/23 12:17:38;;;;;;;5.03;3.63;;;32.00;70.30;;;;;;4946530;28;20106;-60
2022/07/23 12:20:06;;;;;;;7.63;3.65;;;31.60;70.70;;;;;;4950079;28;20035;-54
2022/07/23 12:22:48;;;;;;;8.60;3.10;;;31.10;72.10;;;;;;4945499;28;20051;-57
2022/07/23 12:25:53;;;;;;;6.07;3.42;;;30.70;68.70;;;;;;4943011;28;20110;-58
2022/07/23 12:28:37;;;;;;;4.25;3.28;;;30.40;69.60;;;;;;4864503;29;20059;-60
2022/07/23 12:31:03;;;;;;;5.50;3.55;;;30.60;74.50;;;;;;4864177;29;20550;-55
2022/07/23 12:33:35;;;;;;;3.58;3.03;;;31.00;69.90;;;;;;4912673;28;20142;-57
2022/07/23 12:36:04;;;;;;;3.93;3.20;;;32.20;69.80;;;;;;4944042;28;20031;-60
2022/07/23 12:38:42;;;;;;;7.63;3.58;;;33.20;65.50;;;;;;4944167;28;20588;-57
2022/07/23 12:41:07;;;;;;;6.68;2.90;;;33.30;66.30;;;;;;4942623;28;20027;-58
2022/07/23 12:43:38;;;;;;;6.43;3.20;;;34.20;64.90;;;;;;4943032;28;20030;-58
2022/07/23 12:46:11;;;;;;;6.88;3.40;;;34.40;64.30;;;;;;4943053;28;20027;-56
2022/07/23 12:48:40;;;;;;;5.97;3.30;;;34.60;64.40;;;;;;4943059;28;20054;-57
2022/07/23 12:51:14;;;;;;;4.07;3.67;;;34.70;65.20;;;;;;4943028;28;20479;-58
2022/07/23 12:53:43;;;;;;;3.72;3.40;;;33.50;63.30;;;;;;4942259;28;20588;-58
2022/07/23 12:56:13;;;;;;;3.92;3.58;;;32.50;63.40;;;;;;4942848;28;20027;-55